createdAt,value
2022-11-05T00:02:07.731Z,7.10
2022-11-05T00:07:36.796Z,7.07
2022-11-05T00:13:06.068Z,7.03
2022-11-05T00:18:09.076Z,6.97
2022-11-05T00:23:30.924Z,6.93
2022-11-05T00:28:35.467Z,6.90
2022-11-05T00:33:39.905Z,6.87
2022-11-05T00:38:42.814Z,6.84
2022-11-05T00:44:12.340Z,6.80
2022-11-05T00:49:30.194Z,6.76
2022-11-05T00:54:33.109Z,6.74
2022-11-05T00:59:36.000Z,6.74
2022-11-05T01:04:38.910Z,6.74
2022-11-05T01:09:41.809Z,6.73
2022-11-05T01:14:44.713Z,6.71
2022-11-05T01:19:47.617Z,6.70
2022-11-05T01:24:50.731Z,6.70
2022-11-05T01:29:53.630Z,6.69
2022-11-05T01:34:56.537Z,6.68
2022-11-05T01:39:59.540Z,6.67
2022-11-05T01:45:25.486Z,6.65
2022-11-05T01:50:30.537Z,6.61
2022-11-05T01:55:38.360Z,6.58
2022-11-05T02:00:42.973Z,6.56
2022-11-05T02:05:48.573Z,6.54
2022-11-05T02:10:51.889Z,6.51
2022-11-05T02:16:26.024Z,6.50
2022-11-05T02:22:10.497Z,6.49
2022-11-05T02:27:19.238Z,6.49
2022-11-05T02:32:28.496Z,6.49
2022-11-05T02:37:41.739Z,6.48
2022-11-05T02:43:03.706Z,6.47
2022-11-05T02:48:25.231Z,6.47
2022-11-05T02:53:42.784Z,6.46
2022-11-05T02:58:45.683Z,6.46
2022-11-05T03:03:57.188Z,6.47
2022-11-05T03:09:12.277Z,6.48
2022-11-05T03:14:26.992Z,6.47
2022-11-05T03:19:58.345Z,6.47
2022-11-05T03:25:08.164Z,6.46
2022-11-05T03:30:12.919Z,6.47
2022-11-05T03:35:23.691Z,6.47
2022-11-05T03:40:27.562Z,6.48
2022-11-05T03:45:36.405Z,6.48
2022-11-05T03:51:21.699Z,6.48
2022-11-05T03:56:45.495Z,6.48
2022-11-05T04:01:49.974Z,6.48
2022-11-05T04:07:11.678Z,6.49
2022-11-05T04:12:33.327Z,6.51
2022-11-05T04:17:36.237Z,6.54
2022-11-05T04:22:57.973Z,6.55
2022-11-05T04:28:00.878Z,6.54
2022-11-05T04:33:03.782Z,6.53
2022-11-05T04:38:12.352Z,6.52
2022-11-05T04:43:18.780Z,6.52
2022-11-05T04:48:22.122Z,6.52
2022-11-05T04:53:26.245Z,6.51
2022-11-05T04:58:29.153Z,6.52
2022-11-05T05:03:32.066Z,6.53
2022-11-05T05:08:35.427Z,6.56
2022-11-05T05:13:38.274Z,6.58
2022-11-05T05:18:46.030Z,6.61
2022-11-05T05:23:49.408Z,6.65
2022-11-05T05:28:53.736Z,6.68
2022-11-05T05:33:56.861Z,6.73
2022-11-05T05:38:59.864Z,6.77
2022-11-05T05:44:05.425Z,6.83
2022-11-05T05:49:12.667Z,6.87
2022-11-05T05:54:16.255Z,6.91
2022-11-05T05:59:19.157Z,6.95
2022-11-05T06:04:22.376Z,6.99
2022-11-05T06:09:25.383Z,7.02
2022-11-05T06:14:28.383Z,7.06
2022-11-05T06:19:31.387Z,7.10
2022-11-05T06:24:34.441Z,7.13
2022-11-05T06:29:37.505Z,7.15
2022-11-05T06:34:43.067Z,7.18
2022-11-05T06:39:45.973Z,7.20
2022-11-05T06:44:48.983Z,7.23
2022-11-05T06:49:51.894Z,7.26
2022-11-05T06:54:54.889Z,7.30
2022-11-05T07:00:02.279Z,7.36
2022-11-05T07:05:11.151Z,7.41
2022-11-05T07:10:17.223Z,7.45
2022-11-05T07:15:20.744Z,7.47
2022-11-05T07:20:23.642Z,7.49
2022-11-05T07:25:26.766Z,7.50
2022-11-05T07:30:30.986Z,7.51
2022-11-05T07:35:33.992Z,7.53
2022-11-05T07:40:37.102Z,7.55
2022-11-05T07:45:40.112Z,7.58
2022-11-05T07:50:43.010Z,7.61
2022-11-05T07:55:46.222Z,7.63
2022-11-05T08:00:49.269Z,7.65
2022-11-05T08:05:52.393Z,7.67
2022-11-05T08:11:03.156Z,7.69
2022-11-05T08:16:06.694Z,7.71
2022-11-05T08:21:09.755Z,7.74
2022-11-05T08:26:12.658Z,7.78
2022-11-05T08:31:18.069Z,7.81
2022-11-05T08:36:20.934Z,7.84
2022-11-05T08:41:24.442Z,7.86
2022-11-05T08:46:27.657Z,7.87
2022-11-05T08:51:31.249Z,7.89
2022-11-05T08:56:34.282Z,7.91
2022-11-05T09:01:37.552Z,7.94
2022-11-05T09:06:40.611Z,7.96
2022-11-05T09:12:10.562Z,7.99
2022-11-05T09:17:17.612Z,8.05
2022-11-05T09:22:20.555Z,8.11
2022-11-05T09:27:23.450Z,8.15
2022-11-05T09:32:26.365Z,8.21
2022-11-05T09:37:29.975Z,8.26
2022-11-05T09:42:41.202Z,8.29
2022-11-05T09:47:52.579Z,8.34
2022-11-05T09:52:55.481Z,8.38
2022-11-05T09:58:06.780Z,8.41
2022-11-05T10:03:15.778Z,8.44
2022-11-05T10:08:18.740Z,8.50
2022-11-05T10:13:29.929Z,8.55
2022-11-05T10:18:47.585Z,8.60
2022-11-05T10:23:50.484Z,8.64
2022-11-05T10:28:54.251Z,8.70
2022-11-05T10:34:02.447Z,8.79
2022-11-05T10:39:15.087Z,8.87
2022-11-05T10:44:19.333Z,8.93
2022-11-05T10:49:46.580Z,8.99
2022-11-05T10:54:51.267Z,9.05
2022-11-05T10:59:54.235Z,9.11
2022-11-05T11:04:58.566Z,9.16
2022-11-05T11:10:01.575Z,9.21
2022-11-05T11:15:14.517Z,9.26
2022-11-05T11:20:30.733Z,9.31
2022-11-05T11:25:45.294Z,9.39
2022-11-05T11:31:03.571Z,9.52
2022-11-05T11:36:07.389Z,9.68
2022-11-05T11:41:26.173Z,9.81
2022-11-05T11:46:33.378Z,9.96
2022-11-05T11:51:49.446Z,10.04
2022-11-05T11:56:53.320Z,10.09
2022-11-05T12:02:14.419Z,10.12
2022-11-05T12:07:53.400Z,10.25
2022-11-05T12:13:27.432Z,10.39
2022-11-05T12:19:12.324Z,10.51
2022-11-05T12:24:40.517Z,10.65
2022-11-05T12:30:17.728Z,10.67
2022-11-05T12:36:08.552Z,10.65
2022-11-05T12:41:33.274Z,10.55
2022-11-05T12:46:56.660Z,10.46
2022-11-05T12:52:05.508Z,10.37
2022-11-05T12:57:12.870Z,10.26
2022-11-05T13:02:26.164Z,10.15
2022-11-05T13:07:36.127Z,10.04
2022-11-05T13:12:42.557Z,9.98
2022-11-05T13:18:30.676Z,9.91
2022-11-05T13:23:42.592Z,9.90
2022-11-05T13:28:55.778Z,9.90
2022-11-05T13:34:05.255Z,9.89
2022-11-05T13:39:35.188Z,9.89
2022-11-05T13:44:50.325Z,9.86
2022-11-05T13:49:59.170Z,9.78
2022-11-05T13:55:08.218Z,9.72
2022-11-05T14:00:19.628Z,9.71
2022-11-05T14:05:28.562Z,9.71
2022-11-05T14:10:37.232Z,9.73
2022-11-05T14:15:40.316Z,9.68
2022-11-05T14:20:56.424Z,9.63
2022-11-05T14:26:34.962Z,9.61
2022-11-05T14:32:10.506Z,9.58
2022-11-05T14:37:13.642Z,9.56
2022-11-05T14:42:30.880Z,9.53
2022-11-05T14:47:39.785Z,9.48
2022-11-05T14:52:54.128Z,9.43
2022-11-05T14:57:57.104Z,9.39
2022-11-05T15:03:24.418Z,9.39
2022-11-05T15:08:51.863Z,9.39
2022-11-05T15:14:08.605Z,9.38
2022-11-05T15:19:21.735Z,9.31
2022-11-05T15:24:28.283Z,9.25
2022-11-05T15:29:33.542Z,9.22
2022-11-05T15:34:36.537Z,9.22
2022-11-05T15:39:41.132Z,9.21
2022-11-05T15:44:46.594Z,9.18
2022-11-05T15:49:57.356Z,9.13
2022-11-05T15:55:13.010Z,9.10
2022-11-05T16:00:22.661Z,9.05
2022-11-05T16:05:33.958Z,9.00
2022-11-05T16:10:38.944Z,8.96
2022-11-05T16:15:53.901Z,8.94
2022-11-05T16:21:02.521Z,8.91
2022-11-05T16:26:05.636Z,8.86
2022-11-05T16:31:08.538Z,8.82
2022-11-05T16:36:12.032Z,8.79
2022-11-05T16:41:16.891Z,8.78
2022-11-05T16:46:19.917Z,8.79
2022-11-05T16:51:27.260Z,8.79
2022-11-05T16:56:30.981Z,8.81
2022-11-05T17:01:39.828Z,8.73
2022-11-05T17:06:44.026Z,8.64
2022-11-05T17:11:46.960Z,8.61
2022-11-05T17:16:50.040Z,8.62
2022-11-05T17:21:55.114Z,8.64
2022-11-05T17:26:58.097Z,8.66
2022-11-05T17:32:01.206Z,8.71
2022-11-05T17:37:04.216Z,8.73
2022-11-05T17:42:07.117Z,8.72
2022-11-05T17:47:10.228Z,8.69
2022-11-05T17:52:13.336Z,8.64
2022-11-05T17:57:16.446Z,8.61
2022-11-05T18:02:19.596Z,8.58
2022-11-05T18:07:22.765Z,8.57
2022-11-05T18:12:25.668Z,8.55
2022-11-05T18:17:30.000Z,8.56
2022-11-05T18:22:32.909Z,8.52
2022-11-05T18:27:36.047Z,8.46
2022-11-05T18:32:39.126Z,8.41
2022-11-05T18:37:42.501Z,8.36
2022-11-05T18:42:45.871Z,8.31
2022-11-05T18:47:48.864Z,8.27
2022-11-05T18:52:51.720Z,8.21
2022-11-05T18:57:54.672Z,8.18
2022-11-05T19:02:58.235Z,8.18
2022-11-05T19:08:01.298Z,8.18
2022-11-05T19:13:04.201Z,8.14
2022-11-05T19:18:07.834Z,8.11
2022-11-05T19:23:10.991Z,8.08
2022-11-05T19:28:14.235Z,8.05
2022-11-05T19:33:17.578Z,8.06
2022-11-05T19:38:20.566Z,8.06
2022-11-05T19:43:23.674Z,8.03
2022-11-05T19:48:27.768Z,7.97
2022-11-05T19:53:30.714Z,7.94
2022-11-05T19:58:35.139Z,7.91
2022-11-05T20:03:38.719Z,7.89
2022-11-05T20:08:59.830Z,7.86
2022-11-05T20:14:06.367Z,7.80
2022-11-05T20:19:14.415Z,7.70
2022-11-05T20:24:24.283Z,7.58
2022-11-05T20:29:35.039Z,7.51
2022-11-05T20:34:38.898Z,7.43
2022-11-05T20:39:41.779Z,7.35
2022-11-05T20:44:44.704Z,7.27
2022-11-05T20:49:47.609Z,7.23
2022-11-05T20:54:50.514Z,7.20
2022-11-05T20:59:53.517Z,7.14
2022-11-05T21:04:56.422Z,7.10
2022-11-05T21:09:59.327Z,7.08
2022-11-05T21:15:02.539Z,7.06
2022-11-05T21:20:06.293Z,7.05
2022-11-05T21:25:10.383Z,6.99
2022-11-05T21:30:13.660Z,6.95
2022-11-05T21:35:19.281Z,6.88
2022-11-05T21:40:22.488Z,6.83
2022-11-05T21:45:25.497Z,6.80
2022-11-05T21:50:47.351Z,6.73
2022-11-05T21:56:08.986Z,6.64
2022-11-05T22:01:13.921Z,6.50
2022-11-05T22:06:17.044Z,6.39
2022-11-05T22:11:20.153Z,6.32
2022-11-05T22:16:23.057Z,6.23
2022-11-05T22:21:26.061Z,6.17
2022-11-05T22:26:28.968Z,6.11
2022-11-05T22:31:36.009Z,6.06
2022-11-05T22:36:39.688Z,6.00
2022-11-05T22:41:43.129Z,5.94
2022-11-05T22:46:46.214Z,5.89
2022-11-05T22:51:49.423Z,5.83
2022-11-05T22:56:53.928Z,5.76
2022-11-05T23:01:56.986Z,5.69
2022-11-05T23:07:23.175Z,5.61
2022-11-05T23:12:34.859Z,5.58
2022-11-05T23:17:56.582Z,5.51
2022-11-05T23:23:18.530Z,5.41
2022-11-05T23:28:21.855Z,5.31
2022-11-05T23:33:25.486Z,5.21
2022-11-05T23:38:34.922Z,5.13
2022-11-05T23:43:56.360Z,5.05
2022-11-05T23:48:59.877Z,4.98
2022-11-05T23:54:02.785Z,4.94
2022-11-05T23:59:06.098Z,4.91
